Mudcat — WCY8255 — position and weather

sailwx.info

Track history (hours):
 
Tides and Currents Weather Stations Pressure Air Temp Water Temp Dewpoint Dewpoint Depression Visibility Wind Speed Wind Dir Waves Ship Positions

Mudcat

Owner: TAURUS MARINE, SAN FRANCISCO, CA. More information available from US FCC via Universal Licensing System and Coast Guard Vessel Documentation Center.

Last reported at 2017-May-26 23:24 UTC. Time now 2017-May-28 20:35 UTC.
Position N 47°39' W 122°20'.

Length 22 m; draft 2 m.

Type: Tug. MMSI: 366969750.

Date/timePositionNaut miles runAvg speedWind from/ knotsBaromVisibWave heightAir tempDewpointWater temp
2017-May-26 23:24N 47°39' W 122°20'1 3.8
2017-May-26 23:00N 47°39' W 122°22'1 2.6
2017-May-26 22:30N 47°40' W 122°24'0 0.6
2017-May-26 22:00N 47°40' W 122°24'2 4.2
2017-May-26 21:30N 47°38' W 122°25'2 3.2
2017-May-26 21:00N 47°37' W 122°24'3 6.4
2017-May-26 20:30N 47°40' W 122°27'2 3.8
2017-May-26 20:00N 47°40' W 122°24'0 0.0
2017-May-26 19:30N 47°40' W 122°24'0 0.3
2017-May-26 19:00N 47°40' W 122°24'2 4.0
2017-May-26 18:30N 47°39' W 122°21'2 3.9
2017-May-26 17:57N 47°39' W 122°18'2 4.9
2017-May-26 17:30N 47°38' W 122°15'2 4.5
2017-May-26 17:00N 47°39' W 122°18'3 5.4
2017-May-26 16:30N 47°39' W 122°22'2 3.3
2017-May-26 16:00N 47°40' W 122°24'2 3.4
2017-May-26 15:30N 47°39' W 122°26'5 9.1
2017-May-26 15:00N 47°36' W 122°22'  
Track history (hours):
 
Tides and Currents Weather Stations Pressure Air Temp Water Temp Dewpoint Dewpoint Depression Visibility Wind Speed Wind Dir Waves Ship Positions

Mudcat

Owner: TAURUS MARINE, SAN FRANCISCO, CA. More information available from US FCC via Universal Licensing System and Coast Guard Vessel Documentation Center.

Last reported at 2017-May-26 23:24 UTC. Time now 2017-May-28 20:35 UTC.
Position N 47°39' W 122°20'.

Length 22 m; draft 2 m.

Type: Tug. MMSI: 366969750.

Date/timePositionNaut miles runAvg speedWind from/ knotsBaromVisibWave heightAir tempDewpointWater temp
2017-May-26 23:24N 47°39' W 122°20'1 3.8
2017-May-26 23:00N 47°39' W 122°22'1 2.6
2017-May-26 22:30N 47°40' W 122°24'0 0.6
2017-May-26 22:00N 47°40' W 122°24'2 4.2
2017-May-26 21:30N 47°38' W 122°25'2 3.2
2017-May-26 21:00N 47°37' W 122°24'3 6.4
2017-May-26 20:30N 47°40' W 122°27'2 3.8
2017-May-26 20:00N 47°40' W 122°24'0 0.0
2017-May-26 19:30N 47°40' W 122°24'0 0.3
2017-May-26 19:00N 47°40' W 122°24'2 4.0
2017-May-26 18:30N 47°39' W 122°21'2 3.9
2017-May-26 17:57N 47°39' W 122°18'2 4.9
2017-May-26 17:30N 47°38' W 122°15'2 4.5
2017-May-26 17:00N 47°39' W 122°18'3 5.4
2017-May-26 16:30N 47°39' W 122°22'2 3.3
2017-May-26 16:00N 47°40' W 122°24'2 3.4
2017-May-26 15:30N 47°39' W 122°26'5 9.1
2017-May-26 15:00N 47°36' W 122°22'  

Dump ship's entire track history